Time;durP1;ratioP1;P1;durP2;ratioP2;P2;SDS_P1;SDS_P2;PMS_P1;PMS_P2;Temp;Humidity;BMP_temperature;BMP_pressure;BME280_temperature;BME280_humidity;BME280_pressure;Samples;Min_cycle;Max_cycle;Signal;HPM_P1;HPM_P2
2023/02/25 00:01:50;;;;;;;;;;;;;;;3.69;87.69;98218.33;106302;1273;22507;-59
2023/02/25 00:04:19;;;;;;;;;;;;;;;3.65;87.95;98212.80;106276;1278;22513;-58
2023/02/25 00:06:49;;;;;;;;;;;;;;;3.62;88.13;98212.20;106247;1278;22534;-62
2023/02/25 00:09:18;;;;;;;;;;;;;;;3.57;88.26;98207.98;106269;1278;25378;-58
2023/02/25 00:11:47;;;;;;;;;;;;;;;3.54;88.45;98212.24;106172;1278;25328;-59
2023/02/25 00:14:16;;;;;;;;;;;;;;;3.53;88.71;98209.58;106360;1271;25347;-58
2023/02/25 00:16:46;;;;;;;;;;;;;;;3.51;88.85;98213.11;106324;1278;22514;-60
2023/02/25 00:19:15;;;;;;;;;;;;;;;3.50;89.03;98212.14;106330;1271;22526;-59
2023/02/25 00:21:45;;;;;;;;;;;;;;;3.49;89.18;98216.14;106429;1278;25196;-60
2023/02/25 00:24:14;;;;;;;;;;;;;;;3.47;89.12;98219.66;106341;1277;24855;-59
2023/02/25 00:26:43;;;;;;;;;;;;;;;3.44;89.23;98217.26;106272;1278;22560;-59
2023/02/25 00:29:13;;;;;;;;;;;;;;;3.38;89.24;98210.11;106434;1278;24386;-59
2023/02/25 00:31:42;;;;;;;;;;;;;;;3.32;89.27;98205.46;106248;1269;24273;-58
2023/02/25 00:34:11;;;;;;;;;;;;;;;3.26;89.38;98196.77;106205;1272;23103;-59
2023/02/25 00:36:41;;;;;;;;;;;;;;;3.23;89.56;98194.53;106271;1278;24709;-60
2023/02/25 00:39:10;;;;;;;;;;;;;;;3.20;89.65;98186.79;106236;1277;22527;-59
2023/02/25 00:41:39;;;;;;;;;;;;;;;3.18;89.69;98190.06;106273;1277;22560;-58
2023/02/25 00:44:09;;;;;;;;;;;;;;;3.15;89.79;98189.77;106258;1277;22523;-59
2023/02/25 00:46:38;;;;;;;;;;;;;;;3.13;89.80;98181.05;106351;1277;24270;-61
2023/02/25 00:49:07;;;;;;;;;;;;;;;3.11;89.87;98178.82;106356;1274;25342;-59
2023/02/25 00:51:38;;;;;;;;;;;;;;;3.09;89.95;98172.17;106325;1278;22536;-60
2023/02/25 00:54:07;;;;;;;;;;;;;;;3.07;89.90;98171.59;106453;1274;22516;-59
2023/02/25 00:56:36;;;;;;;;;;;;;;;3.05;89.93;98168.52;106354;1273;25348;-60
2023/02/25 00:59:06;;;;;;;;;;;;;;;3.04;90.12;98168.09;106386;1277;23275;-62
2023/02/25 01:01:36;;;;;;;;;;;;;;;3.03;90.03;98166.02;106270;1263;24238;-60
2023/02/25 01:04:07;;;;;;;;;;;;;;;3.01;90.19;98162.13;106440;1268;24230;-59
2023/02/25 01:06:37;;;;;;;;;;;;;;;2.99;90.18;98163.70;106320;1278;25409;-56
2023/02/25 01:09:12;;;;;;;;;;;;;;;2.99;90.26;98153.83;106297;1278;25601;-59
2023/02/25 01:11:42;;;;;;;;;;;;;;;3.00;90.42;98147.93;106257;1276;24339;-58
2023/02/25 01:14:13;;;;;;;;;;;;;;;3.00;90.46;98147.23;106280;1274;22511;-60
2023/02/25 01:16:44;;;;;;;;;;;;;;;3.02;90.51;98140.29;106376;1272;25367;-59
2023/02/25 01:19:14;;;;;;;;;;;;;;;3.03;90.52;98133.44;106257;1273;24252;-60
2023/02/25 01:21:45;;;;;;;;;;;;;;;3.04;90.62;98129.00;106349;1278;24238;-58
2023/02/25 01:24:15;;;;;;;;;;;;;;;3.05;90.61;98125.29;106304;1265;22530;-60
2023/02/25 01:26:45;;;;;;;;;;;;;;;3.06;90.56;98125.15;106437;1278;24265;-59
2023/02/25 01:29:16;;;;;;;;;;;;;;;3.07;90.60;98118.86;106276;1277;26833;-59
2023/02/25 01:31:46;;;;;;;;;;;;;;;3.08;90.55;98120.23;106275;1273;24356;-58
2023/02/25 01:34:16;;;;;;;;;;;;;;;3.07;90.53;98117.67;106280;1264;26654;-61
2023/02/25 01:36:46;;;;;;;;;;;;;;;3.07;90.45;98115.45;106383;1278;25435;-60
2023/02/25 01:39:17;;;;;;;;;;;;;;;3.08;90.48;98117.89;106180;1278;22497;-60
2023/02/25 01:41:47;;;;;;;;;;;;;;;3.07;90.45;98115.07;106406;1278;25328;-60
2023/02/25 01:44:18;;;;;;;;;;;;;;;3.08;90.48;98112.95;106297;1260;24606;-60
2023/02/25 01:46:48;;;;;;;;;;;;;;;3.08;90.39;98110.77;106485;1274;22630;-60
2023/02/25 01:49:19;;;;;;;;;;;;;;;3.08;90.32;98103.94;106213;1270;23063;-56
2023/02/25 01:51:49;;;;;;;;;;;;;;;3.06;90.19;98107.89;106326;1278;25479;-59
2023/02/25 01:54:19;;;;;;;;;;;;;;;3.06;90.35;98107.27;106342;1273;25409;-60
2023/02/25 01:56:51;;;;;;;;;;;;;;;3.05;90.34;98108.42;106279;1276;25401;-57
2023/02/25 01:59:22;;;;;;;;;;;;;;;3.06;90.36;98101.20;106285;1277;24251;-57
2023/02/25 02:01:52;;;;;;;;;;;;;;;3.07;90.39;98100.82;106252;1276;22511;-59
2023/02/25 02:04:21;;;;;;;;;;;;;;;3.09;90.31;98099.64;106266;1278;25393;-59
2023/02/25 02:06:51;;;;;;;;;;;;;;;3.09;90.30;98100.30;106260;1278;22636;-57
2023/02/25 02:09:22;;;;;;;;;;;;;;;3.11;90.34;98101.47;106333;1267;22522;-60
2023/02/25 02:11:51;;;;;;;;;;;;;;;3.12;90.30;98099.98;106407;1278;24259;-59
2023/02/25 02:14:22;;;;;;;;;;;;;;;3.13;90.28;98100.86;106308;1278;24200;-60
2023/02/25 02:17:09;;;;;;;;;;;;;;;3.14;90.28;98098.07;106224;1278;24249;-59
2023/02/25 02:19:43;;;;;;;;;;;;;;;3.16;90.17;98094.59;106317;1278;25508;-60
2023/02/25 02:22:16;;;;;;;;;;;;;;;3.17;90.15;98096.20;106402;1274;24247;-59
2023/02/25 02:25:03;;;;;;;;;;;;;;;3.19;90.17;98092.11;106434;1278;25394;-59
2023/02/25 02:27:38;;;;;;;;;;;;;;;3.19;90.14;98090.77;106562;1278;24272;-60
2023/02/25 02:30:17;;;;;;;;;;;;;;;3.20;90.16;98091.48;106474;1264;25328;-59
2023/02/25 02:32:53;;;;;;;;;;;;;;;3.22;90.17;98088.25;106187;1260;22513;-59
2023/02/25 02:35:24;;;;;;;;;;;;;;;3.22;90.13;98088.30;106301;1274;23519;-59
2023/02/25 02:37:58;;;;;;;;;;;;;;;3.23;90.08;98083.11;106379;1278;24078;-60
2023/02/25 02:40:37;;;;;;;;;;;;;;;3.25;90.08;98078.21;106444;1263;22646;-60
2023/02/25 02:43:15;;;;;;;;;;;;;;;3.27;90.10;98082.20;106268;1263;25487;-60
2023/02/25 02:45:49;;;;;;;;;;;;;;;3.28;90.03;98075.81;106414;1273;22595;-61
2023/02/25 02:48:20;;;;;;;;;;;;;;;3.29;89.84;98081.02;106418;1264;24264;-59
2023/02/25 02:50:51;;;;;;;;;;;;;;;3.30;89.82;98075.21;106247;1264;22575;-58
2023/02/25 02:53:22;;;;;;;;;;;;;;;3.32;89.80;98080.59;106287;1264;24293;-58
2023/02/25 02:55:53;;;;;;;;;;;;;;;3.32;89.76;98078.05;106389;1276;22771;-58
2023/02/25 02:58:25;;;;;;;;;;;;;;;3.34;89.78;98077.72;106270;1272;22530;-60
2023/02/25 03:00:59;;;;;;;;;;;;;;;3.35;89.80;98082.95;106358;1278;24225;-60
2023/02/25 03:03:36;;;;;;;;;;;;;;;3.36;89.67;98078.30;106547;1264;22505;-59
2023/02/25 03:06:08;;;;;;;;;;;;;;;3.39;89.59;98080.23;106339;1275;25341;-60
2023/02/25 03:08:40;;;;;;;;;;;;;;;3.40;89.42;98082.36;106500;1271;25364;-58
2023/02/25 03:11:09;;;;;;;;;;;;;;;3.42;89.27;98079.52;106436;1264;27439;-58
2023/02/25 03:13:38;;;;;;;;;;;;;;;3.43;89.25;98087.56;106345;1263;24240;-59
2023/02/25 03:16:09;;;;;;;;;;;;;;;3.45;89.10;98084.08;106350;1272;22521;-59
2023/02/25 03:18:41;;;;;;;;;;;;;;;3.46;89.12;98083.44;106453;1278;22514;-59
2023/02/25 03:21:15;;;;;;;;;;;;;;;3.48;89.00;98087.77;106323;1265;25339;-59
2023/02/25 03:23:46;;;;;;;;;;;;;;;3.49;88.94;98089.66;106343;1275;24221;-57
2023/02/25 03:26:20;;;;;;;;;;;;;;;3.50;89.02;98088.96;106334;1273;22560;-60
2023/02/25 03:28:50;;;;;;;;;;;;;;;3.51;88.79;98091.61;106417;1273;24255;-59
2023/02/25 03:31:21;;;;;;;;;;;;;;;3.50;88.43;98087.75;106307;1278;22505;-59
2023/02/25 03:33:54;;;;;;;;;;;;;;;3.51;88.40;98085.61;106361;1278;22514;-63
2023/02/25 03:36:25;;;;;;;;;;;;;;;3.50;88.29;98091.61;106349;1264;22550;-60
2023/02/25 03:38:57;;;;;;;;;;;;;;;3.48;88.33;98088.88;106513;1278;22515;-59
2023/02/25 03:41:30;;;;;;;;;;;;;;;3.46;88.05;98085.29;106435;1271;22533;-60
2023/02/25 03:44:00;;;;;;;;;;;;;;;3.43;87.90;98082.70;106387;1264;22541;-60
2023/02/25 03:46:30;;;;;;;;;;;;;;;3.39;87.90;98079.30;106418;1272;23028;-60
2023/02/25 03:49:01;;;;;;;;;;;;;;;3.34;87.90;98076.52;106480;1278;22649;-57
2023/02/25 03:51:33;;;;;;;;;;;;;;;3.28;87.88;98079.45;106394;1263;22513;-59
2023/02/25 03:54:02;;;;;;;;;;;;;;;3.25;88.03;98085.08;106443;1274;24290;-59
2023/02/25 03:56:39;;;;;;;;;;;;;;;3.23;88.04;98083.39;106374;1271;22524;-59
2023/02/25 03:59:08;;;;;;;;;;;;;;;3.21;88.08;98072.84;106364;1271;25899;-58
2023/02/25 04:01:38;;;;;;;;;;;;;;;3.18;87.95;98074.02;106350;1271;22510;-59
2023/02/25 04:04:07;;;;;;;;;;;;;;;3.14;87.75;98073.21;106357;1272;22556;-59
2023/02/25 04:06:37;;;;;;;;;;;;;;;3.10;87.78;98071.90;106363;1277;22524;-60
2023/02/25 04:09:06;;;;;;;;;;;;;;;3.06;87.83;98072.60;106382;1278;22511;-59
2023/02/25 04:11:35;;;;;;;;;;;;;;;3.03;87.87;98071.84;106309;1271;22539;-59
2023/02/25 04:14:05;;;;;;;;;;;;;;;2.99;87.88;98074.15;106503;1265;25232;-59
2023/02/25 04:16:34;;;;;;;;;;;;;;;2.95;87.95;98079.77;106364;1264;22520;-62
2023/02/25 04:19:03;;;;;;;;;;;;;;;2.94;88.14;98079.54;106349;1278;25352;-58
2023/02/25 04:21:34;;;;;;;;;;;;;;;2.92;88.15;98071.14;106442;1278;24302;-58
2023/02/25 04:24:05;;;;;;;;;;;;;;;2.91;88.23;98070.69;106392;1274;22613;-59
2023/02/25 04:26:35;;;;;;;;;;;;;;;2.90;88.21;98070.61;106386;1271;24279;-59
2023/02/25 04:29:04;;;;;;;;;;;;;;;2.91;88.32;98071.77;106471;1263;24351;-60
2023/02/25 04:31:33;;;;;;;;;;;;;;;2.91;88.23;98070.11;106429;1264;22667;-60
2023/02/25 04:34:02;;;;;;;;;;;;;;;2.90;88.11;98063.36;106335;1278;22534;-60
2023/02/25 04:36:33;;;;;;;;;;;;;;;2.90;88.07;98062.39;106410;1278;23620;-56
2023/02/25 04:39:04;;;;;;;;;;;;;;;2.91;88.07;98058.60;106464;1267;22521;-59
2023/02/25 04:41:34;;;;;;;;;;;;;;;2.91;87.97;98058.05;106363;1264;22576;-62
2023/02/25 04:44:05;;;;;;;;;;;;;;;2.92;87.84;98047.67;106348;1271;22524;-60
2023/02/25 04:46:36;;;;;;;;;;;;;;;2.94;87.90;98047.17;106552;1264;24272;-60
2023/02/25 04:49:06;;;;;;;;;;;;;;;2.95;87.75;98043.58;106609;1272;24938;-59
2023/02/25 04:51:37;;;;;;;;;;;;;;;2.97;87.71;98041.34;106571;1277;25328;-57
2023/02/25 04:54:06;;;;;;;;;;;;;;;2.97;87.71;98041.86;106542;1278;25377;-59
2023/02/25 04:56:35;;;;;;;;;;;;;;;2.98;87.67;98034.40;106391;1263;24424;-60
2023/02/25 04:59:05;;;;;;;;;;;;;;;2.98;87.54;98030.30;106558;1276;24217;-58
2023/02/25 05:01:35;;;;;;;;;;;;;;;2.99;87.48;98026.85;106538;1264;25243;-60
2023/02/25 05:04:04;;;;;;;;;;;;;;;3.00;87.58;98023.14;106419;1272;25391;-60
2023/02/25 05:06:34;;;;;;;;;;;;;;;3.00;87.49;98025.06;106593;1278;23152;-59
2023/02/25 05:09:04;;;;;;;;;;;;;;;3.02;87.48;98026.77;106403;1264;22516;-60
2023/02/25 05:11:33;;;;;;;;;;;;;;;3.02;87.33;98023.94;106519;1271;25339;-60
2023/02/25 05:14:03;;;;;;;;;;;;;;;3.02;87.29;98023.63;106377;1265;22526;-58
2023/02/25 05:16:32;;;;;;;;;;;;;;;3.02;86.89;98022.17;106380;1264;22570;-59
2023/02/25 05:19:01;;;;;;;;;;;;;;;3.04;86.95;98020.39;106356;1278;22564;-60
2023/02/25 05:21:30;;;;;;;;;;;;;;;3.05;86.89;98023.36;106323;1274;22560;-58
2023/02/25 05:23:59;;;;;;;;;;;;;;;3.05;86.64;98021.37;106373;1264;25297;-60
2023/02/25 05:26:29;;;;;;;;;;;;;;;3.07;86.43;98024.59;106467;1264;22571;-59
2023/02/25 05:28:58;;;;;;;;;;;;;;;3.09;86.43;98027.02;106342;1262;22514;-59
2023/02/25 05:31:27;;;;;;;;;;;;;;;3.10;86.16;98026.68;106555;1261;24291;-59
2023/02/25 05:33:57;;;;;;;;;;;;;;;3.13;86.05;98029.02;106481;1270;22499;-60
2023/02/25 05:36:26;;;;;;;;;;;;;;;3.15;86.42;98027.87;106313;1270;22509;-62
2023/02/25 05:38:55;;;;;;;;;;;;;;;3.17;86.44;98031.64;106299;1271;25527;-60
2023/02/25 05:41:25;;;;;;;;;;;;;;;3.17;86.65;98036.20;106574;1271;24264;-58
2023/02/25 05:43:54;;;;;;;;;;;;;;;3.16;86.80;98035.79;107604;1278;25481;-60
2023/02/25 05:46:24;;;;;;;;;;;;;;;3.15;87.03;98032.23;106272;1272;22638;-60
2023/02/25 05:48:53;;;;;;;;;;;;;;;3.14;87.11;98037.48;106388;1278;24242;-60
2023/02/25 05:51:23;;;;;;;;;;;;;;;3.14;87.39;98032.60;106190;1278;22514;-59
2023/02/25 05:53:53;;;;;;;;;;;;;;;3.13;87.29;98039.14;106332;1278;24204;-59
2023/02/25 05:56:26;;;;;;;;;;;;;;;3.11;87.41;98037.47;106351;1278;25328;-60
2023/02/25 05:58:55;;;;;;;;;;;;;;;3.09;87.61;98037.80;106299;1260;22519;-59
2023/02/25 06:01:28;;;;;;;;;;;;;;;3.06;87.68;98038.81;106300;1272;22522;-59
2023/02/25 06:03:58;;;;;;;;;;;;;;;3.04;87.80;98040.64;106452;1278;25971;-60
2023/02/25 06:06:28;;;;;;;;;;;;;;;3.03;87.79;98038.67;107268;1267;25287;-60
2023/02/25 06:08:58;;;;;;;;;;;;;;;3.03;87.77;98038.16;106355;1271;22557;-59
2023/02/25 06:11:28;;;;;;;;;;;;;;;3.03;88.06;98040.66;106509;1274;22652;-62
2023/02/25 06:13:59;;;;;;;;;;;;;;;3.02;87.91;98042.58;106465;1265;24369;-60
2023/02/25 06:16:30;;;;;;;;;;;;;;;3.03;87.78;98042.53;106445;1272;23722;-59
2023/02/25 06:19:00;;;;;;;;;;;;;;;3.04;87.55;98048.61;106413;1278;25086;-60
2023/02/25 06:21:30;;;;;;;;;;;;;;;3.07;87.44;98045.84;106555;1278;22511;-60
2023/02/25 06:23:59;;;;;;;;;;;;;;;3.09;87.53;98045.02;106458;1271;22560;-61
2023/02/25 06:26:29;;;;;;;;;;;;;;;3.11;87.30;98047.59;106345;1277;22581;-61
2023/02/25 06:28:58;;;;;;;;;;;;;;;3.13;87.44;98053.45;106375;1272;22777;-61
2023/02/25 06:31:27;;;;;;;;;;;;;;;3.15;87.24;98053.58;106453;1265;24288;-59
2023/02/25 06:33:56;;;;;;;;;;;;;;;3.17;87.38;98054.09;106599;1277;22514;-62
2023/02/25 06:36:26;;;;;;;;;;;;;;;3.19;87.53;98053.91;106432;1267;23036;-60
2023/02/25 06:38:55;;;;;;;;;;;;;;;3.20;87.59;98057.55;106321;1271;25238;-60
2023/02/25 06:41:24;;;;;;;;;;;;;;;3.20;87.48;98062.20;106304;1271;24276;-61
2023/02/25 06:43:53;;;;;;;;;;;;;;;3.19;87.55;98065.45;106265;1271;22585;-60
2023/02/25 06:46:23;;;;;;;;;;;;;;;3.19;87.67;98066.20;107044;1259;22508;-61
2023/02/25 06:48:53;;;;;;;;;;;;;;;3.19;87.60;98071.91;106453;1277;22524;-61
2023/02/25 06:51:22;;;;;;;;;;;;;;;3.19;87.72;98078.73;106287;1262;24362;-60
2023/02/25 06:53:52;;;;;;;;;;;;;;;3.18;87.77;98082.09;106412;1271;25402;-59
2023/02/25 06:56:21;;;;;;;;;;;;;;;3.18;87.97;98089.20;106506;1264;22602;-60
2023/02/25 06:58:52;;;;;;;;;;;;;;;3.17;88.11;98088.19;106268;1265;24559;-62
2023/02/25 07:01:21;;;;;;;;;;;;;;;3.15;88.14;98098.73;106089;1271;25510;-61
2023/02/25 07:03:50;;;;;;;;;;;;;;;3.12;87.86;98097.23;106317;1278;22507;-63
2023/02/25 07:06:20;;;;;;;;;;;;;;;3.09;87.95;98102.25;106486;1274;24420;-61
2023/02/25 07:08:49;;;;;;;;;;;;;;;3.07;88.21;98104.44;106393;1277;24289;-60
2023/02/25 07:11:28;;;;;;;;;;;;;;;3.07;88.40;98097.86;106340;1264;22520;-61
2023/02/25 07:13:58;;;;;;;;;;;;;;;3.04;88.51;98106.49;106623;1267;22598;-61
2023/02/25 07:16:28;;;;;;;;;;;;;;;3.04;88.49;98106.39;106484;1263;22667;-57
2023/02/25 07:19:01;;;;;;;;;;;;;;;3.04;88.57;98103.94;106420;1278;22563;-58
2023/02/25 07:21:30;;;;;;;;;;;;;;;3.04;88.76;98107.15;106384;1263;22572;-59
2023/02/25 07:23:59;;;;;;;;;;;;;;;3.05;88.72;98102.69;106236;1275;22530;-58
2023/02/25 07:26:29;;;;;;;;;;;;;;;3.06;88.89;98107.77;106193;1271;22641;-57
2023/02/25 07:28:58;;;;;;;;;;;;;;;3.06;89.03;98104.58;106343;1274;23005;-58
2023/02/25 07:31:28;;;;;;;;;;;;;;;3.08;89.08;98105.74;106291;1278;22764;-58
2023/02/25 07:34:02;;;;;;;;;;;;;;;3.09;89.08;98108.52;106269;1278;22510;-58
2023/02/25 07:36:32;;;;;;;;;;;;;;;3.10;89.06;98108.04;106387;1271;22743;-58
2023/02/25 07:39:03;;;;;;;;;;;;;;;3.12;88.94;98109.17;106265;1264;22517;-57
2023/02/25 07:41:32;;;;;;;;;;;;;;;3.13;89.03;98112.77;106538;1272;22504;-59
2023/02/25 07:44:01;;;;;;;;;;;;;;;3.12;89.17;98109.37;106356;1274;24245;-59
2023/02/25 07:46:31;;;;;;;;;;;;;;;3.11;89.37;98107.14;106341;1263;22630;-59
2023/02/25 07:49:01;;;;;;;;;;;;;;;3.09;89.68;98107.67;106333;1277;24253;-56
2023/02/25 07:51:30;;;;;;;;;;;;;;;3.07;90.02;98114.40;106361;1263;25286;-58
2023/02/25 07:54:00;;;;;;;;;;;;;;;3.03;90.10;98114.75;106238;1271;22566;-57
2023/02/25 07:56:29;;;;;;;;;;;;;;;3.00;90.36;98114.24;106210;1263;24229;-58
2023/02/25 07:58:59;;;;;;;;;;;;;;;2.98;90.15;98112.02;106268;1277;25437;-59
2023/02/25 08:01:30;;;;;;;;;;;;;;;2.99;90.47;98113.03;106264;1278;25412;-58
2023/02/25 08:04:02;;;;;;;;;;;;;;;2.99;90.56;98115.55;106700;1277;24247;-57
2023/02/25 08:06:34;;;;;;;;;;;;;;;2.99;90.79;98114.19;106484;1277;24214;-59
2023/02/25 08:09:04;;;;;;;;;;;;;;;2.99;90.55;98113.04;106244;1262;25380;-57
2023/02/25 08:11:33;;;;;;;;;;;;;;;3.00;90.63;98110.80;106329;1271;25453;-56
2023/02/25 08:14:04;;;;;;;;;;;;;;;3.00;90.51;98109.39;106325;1278;25355;-58
2023/02/25 08:16:34;;;;;;;;;;;;;;;3.03;90.49;98112.94;106219;1275;24280;-58
2023/02/25 08:19:03;;;;;;;;;;;;;;;3.04;90.36;98113.96;106372;1277;22525;-59
2023/02/25 08:21:32;;;;;;;;;;;;;;;3.07;90.03;98114.70;106225;1264;24283;-57
2023/02/25 08:24:02;;;;;;;;;;;;;;;3.09;89.89;98109.48;106323;1274;22627;-56
2023/02/25 08:26:31;;;;;;;;;;;;;;;3.11;89.82;98107.23;106186;1275;23927;-58
2023/02/25 08:29:00;;;;;;;;;;;;;;;3.13;89.98;98106.33;106329;1277;22518;-58
2023/02/25 08:31:30;;;;;;;;;;;;;;;3.15;89.81;98115.11;106374;1277;22514;-58
2023/02/25 08:33:59;;;;;;;;;;;;;;;3.15;89.97;98115.02;106396;1258;22496;-57
2023/02/25 08:36:30;;;;;;;;;;;;;;;3.16;90.06;98113.23;106286;1275;22528;-57
2023/02/25 08:38:59;;;;;;;;;;;;;;;3.15;90.09;98118.73;106552;1267;22649;-58
2023/02/25 08:41:29;;;;;;;;;;;;;;;3.16;90.21;98119.48;106259;1272;22649;-57
2023/02/25 08:44:00;;;;;;;;;;;;;;;3.15;90.01;98128.09;106396;1274;26609;-56
2023/02/25 08:46:32;;;;;;;;;;;;;;;3.13;90.12;98128.44;106522;1263;22505;-56
2023/02/25 08:49:01;;;;;;;;;;;;;;;3.13;90.27;98130.27;106100;1272;24400;-58
2023/02/25 08:51:33;;;;;;;;;;;;;;;3.11;90.42;98130.36;106282;1277;24273;-58
2023/02/25 08:54:04;;;;;;;;;;;;;;;3.11;90.84;98131.95;108307;1271;196723;-56
2023/02/25 08:56:35;;;;;;;;;;;;;;;3.11;91.13;98134.06;106437;1271;22695;-57
2023/02/25 08:59:04;;;;;;;;;;;;;;;3.11;91.42;98133.11;106424;1274;22512;-57
2023/02/25 09:01:44;;;;;;;;;;;;;;;3.10;91.40;98138.61;106239;1271;22526;-57
2023/02/25 09:04:15;;;;;;;;;;;;;;;3.08;91.27;98143.54;106357;1278;23029;-57
2023/02/25 09:06:46;;;;;;;;;;;;;;;3.06;91.54;98145.95;106301;1278;24244;-58
2023/02/25 09:09:15;;;;;;;;;;;;;;;3.03;91.44;98141.46;106362;1278;22625;-55
2023/02/25 09:11:45;;;;;;;;;;;;;;;2.99;91.51;98144.66;106387;1272;22520;-58
2023/02/25 09:14:15;;;;;;;;;;;;;;;2.96;91.76;98148.47;106309;1271;22655;-56
2023/02/25 09:16:44;;;;;;;;;;;;;;;2.94;91.91;98148.80;106333;1278;24241;-57
2023/02/25 09:19:16;;;;;;;;;;;;;;;2.93;92.11;98151.96;106276;1263;25295;-55
2023/02/25 09:21:46;;;;;;;;;;;;;;;2.91;92.10;98158.91;106328;1278;26428;-58
2023/02/25 09:24:16;;;;;;;;;;;;;;;2.89;92.36;98155.17;106386;1275;22507;-58
2023/02/25 09:26:45;;;;;;;;;;;;;;;2.87;92.09;98160.71;106201;1267;24237;-55
2023/02/25 09:29:14;;;;;;;;;;;;;;;2.87;92.21;98163.16;106375;1265;24382;-56
2023/02/25 09:31:43;;;;;;;;;;;;;;;2.87;92.29;98163.30;106257;1278;24375;-55
2023/02/25 09:34:14;;;;;;;;;;;;;;;2.88;92.47;98169.73;106238;1272;22507;-55
2023/02/25 09:36:43;;;;;;;;;;;;;;;2.88;92.26;98168.68;106415;1274;25406;-58
2023/02/25 09:39:12;;;;;;;;;;;;;;;2.89;92.34;98175.72;106200;1278;23134;-57
2023/02/25 09:41:44;;;;;;;;;;;;;;;2.88;92.64;98178.27;106253;1271;22571;-56
2023/02/25 09:44:15;;;;;;;;;;;;;;;2.90;92.61;98177.08;106262;1274;25348;-55
2023/02/25 09:46:49;;;;;;;;;;;;;;;2.94;93.10;98184.81;106301;1278;22510;-56
2023/02/25 09:49:21;;;;;;;;;;;;;;;2.96;92.86;98181.05;106309;1278;22620;-58
2023/02/25 09:51:53;;;;;;;;;;;;;;;3.01;93.16;98180.52;106278;1277;23033;-55
2023/02/25 09:54:26;;;;;;;;;;;;;;;3.05;93.07;98183.59;106667;1271;25368;-56
2023/02/25 09:56:58;;;;;;;;;;;;;;;3.07;92.76;98180.46;106279;1278;22518;-57
2023/02/25 09:59:28;;;;;;;;;;;;;;;3.08;92.75;98188.20;106283;1278;24282;-57
2023/02/25 10:01:59;;;;;;;;;;;;;;;3.10;92.70;98192.67;106340;1278;22567;-58
2023/02/25 10:04:37;;;;;;;;;;;;;;;3.12;92.33;98205.85;106280;1264;25401;-56
2023/02/25 10:07:13;;;;;;;;;;;;;;;3.13;92.13;98200.05;106322;1264;22512;-57
2023/02/25 10:09:48;;;;;;;;;;;;;;;3.14;92.56;98201.58;106315;1278;25415;-55
2023/02/25 10:12:24;;;;;;;;;;;;;;;3.15;92.81;98211.05;106377;1275;24265;-56
2023/02/25 10:15:04;;;;;;;;;;;;;;;3.13;92.96;98212.64;106369;1278;22510;-60
2023/02/25 10:17:42;;;;;;;;;;;;;;;3.15;93.19;98219.48;106195;1274;22573;-58
2023/02/25 10:20:25;;;;;;;;;;;;;;;3.15;93.06;98219.70;106424;1274;22530;-56
2023/02/25 10:23:01;;;;;;;;;;;;;;;3.17;93.18;98218.75;105836;1283;22521;-58
2023/02/25 10:25:33;;;;;;;;;;;;;;;3.18;93.40;98225.27;105809;1277;22567;-57
2023/02/25 10:28:06;;;;;;;;;;;;;;;3.17;92.97;98227.89;106037;1283;24270;-55
2023/02/25 10:30:38;;;;;;;;;;;;;;;3.15;93.20;98226.20;105944;1283;22591;-58
2023/02/25 10:33:15;;;;;;;;;;;;;;;3.15;93.42;98227.96;105831;1277;22529;-59
2023/02/25 10:35:45;;;;;;;;;;;;;;;3.14;93.57;98226.69;105803;1273;22525;-58
2023/02/25 10:38:14;;;;;;;;;;;;;;;3.13;93.65;98223.46;105809;1277;22517;-59
2023/02/25 10:40:43;;;;;;;;;;;;;;;3.14;93.75;98227.48;106056;1283;23956;-59
2023/02/25 10:43:18;;;;;;;;;;;;;;;3.21;94.15;98229.02;106029;1276;22521;-57
2023/02/25 10:45:51;;;;;;;;;;;;;;;3.28;93.90;98227.32;105981;1283;25767;-59
2023/02/25 10:48:23;;;;;;;;;;;;;;;3.41;94.09;98228.36;105824;1283;22523;-56
2023/02/25 10:51:05;;;;;;;;;;;;;;;3.56;94.59;98228.53;105787;1283;24261;-58
2023/02/25 10:53:35;;;;;;;;;;;;;;;3.67;93.61;98233.40;105825;1283;22523;-56
2023/02/25 10:56:05;;;;;;;;;;;;;;;3.71;92.72;98238.84;105985;1283;25374;-59
2023/02/25 10:58:39;;;;;;;;;;;;;;;3.75;92.53;98236.48;105989;1283;25451;-58
2023/02/25 11:01:12;;;;;;;;;;;;;;;3.82;92.47;98241.03;106094;1272;22786;-57
2023/02/25 11:03:57;;;;;;;;;;;;;;;3.87;90.88;98244.95;106337;1278;25486;-57
2023/02/25 11:06:28;;;;;;;;;;;;;;;3.86;90.24;98242.80;106554;1271;23163;-58
2023/02/25 11:08:58;;;;;;;;;;;;;;;3.83;89.82;98248.58;106242;1278;25288;-57
2023/02/25 11:11:31;;;;;;;;;;;;;;;3.79;89.42;98253.33;106356;1264;22509;-57
2023/02/25 11:14:03;;;;;;;;;;;;;;;3.75;89.53;98245.09;106380;1264;24272;-56
2023/02/25 11:16:35;;;;;;;;;;;;;;;3.73;89.94;98249.99;106335;1278;22564;-58
2023/02/25 11:19:11;;;;;;;;;;;;;;;3.70;89.67;98256.27;106436;1274;22623;-58
2023/02/25 11:21:41;;;;;;;;;;;;;;;3.64;89.58;98261.70;106423;1271;22642;-57
2023/02/25 11:24:12;;;;;;;;;;;;;;;3.57;89.71;98268.02;106342;1278;22505;-60
2023/02/25 11:26:43;;;;;;;;;;;;;;;3.42;90.14;98271.01;106360;1278;22530;-57
2023/02/25 11:29:15;;;;;;;;;;;;;;;3.26;90.67;98273.76;106332;1275;25415;-58
2023/02/25 11:31:48;;;;;;;;;;;;;;;3.19;90.90;98277.76;106366;1278;24274;-55
2023/02/25 11:34:22;;;;;;;;;;;;;;;3.17;91.25;98272.77;106314;1264;25559;-60
2023/02/25 11:36:52;;;;;;;;;;;;;;;3.19;91.77;98275.49;106218;1278;25250;-56
2023/02/25 11:39:23;;;;;;;;;;;;;;;3.23;92.14;98274.25;106278;1278;22646;-56
2023/02/25 11:41:53;;;;;;;;;;;;;;;3.30;92.25;98272.01;106364;1278;25281;-55
2023/02/25 11:44:25;;;;;;;;;;;;;;;3.35;91.53;98276.30;106419;1274;22517;-57
2023/02/25 11:47:11;;;;;;;;;;;;;;;3.40;91.12;98278.39;106331;1279;22513;-58
2023/02/25 11:50:06;;;;;;;;;;;;;;;3.44;90.76;98274.34;106238;1272;22507;-57
2023/02/25 11:52:40;;;;;;;;;;;;;;;3.49;90.32;98277.69;106180;1274;25358;-58
2023/02/25 11:55:15;;;;;;;;;;;;;;;3.53;90.77;98277.83;106325;1272;22588;-58
2023/02/25 11:57:48;;;;;;;;;;;;;;;3.54;91.15;98286.17;106406;1278;23936;-58
2023/02/25 12:00:24;;;;;;;;;;;;;;;3.48;90.96;98289.95;106241;1274;25272;-58
2023/02/25 12:03:02;;;;;;;;;;;;;;;3.41;91.02;98298.12;106171;1278;22617;-58
2023/02/25 12:05:49;;;;;;;;;;;;;;;3.35;91.46;98298.98;106339;1278;22520;-58
2023/02/25 12:08:41;;;;;;;;;;;;;;;3.29;91.48;98303.64;106209;1265;22623;-55
2023/02/25 12:11:29;;;;;;;;;;;;;;;3.23;91.68;98305.39;105983;1282;23358;-58
2023/02/25 12:14:12;;;;;;;;;;;;;;;3.15;91.79;98311.93;106052;1280;22630;-59
2023/02/25 12:16:55;;;;;;;;;;;;;;;3.05;91.56;98315.49;106041;1277;22513;-60
2023/02/25 12:19:46;;;;;;;;;;;;;;;2.87;91.71;98316.38;106138;1275;25354;-59
2023/02/25 12:22:26;;;;;;;;;;;;;;;2.72;92.05;98315.19;106100;1275;22792;-62
2023/02/25 12:25:03;;;;;;;;;;;;;;;2.54;91.93;98314.39;105993;1282;24227;-60
2023/02/25 12:27:39;;;;;;;;;;;;;;;2.42;92.75;98320.52;106225;1282;22520;-58
2023/02/25 12:30:23;;;;;;;;;;;;;;;2.37;93.48;98322.17;106004;1280;24265;-61
2023/02/25 12:32:57;;;;;;;;;;;;;;;2.38;94.15;98323.05;106007;1282;25350;-55
2023/02/25 12:35:39;;;;;;;;;;;;;;;2.45;94.77;98326.15;106047;1282;24694;-60
2023/02/25 12:38:28;;;;;;;;;;;;;;;2.56;95.11;98329.48;106043;1278;25406;-58
2023/02/25 12:41:05;;;;;;;;;;;;;;;2.69;95.50;98331.33;105572;1288;24243;-56
2023/02/25 12:43:40;;;;;;;;;;;;;;;2.81;95.54;98330.86;105669;1281;22679;-57
2023/02/25 12:46:21;;;;;;;;;;;;;;;2.93;95.69;98340.14;105725;1288;22583;-56
2023/02/25 12:49:02;;;;;;;;;;;;;;;3.01;94.66;98338.70;105752;1283;26543;-56
2023/02/25 12:51:40;;;;;;;;;;;;;;;3.05;94.42;98337.21;105975;1280;24278;-57
2023/02/25 12:54:21;;;;;;;;;;;;;;;3.05;94.05;98343.27;105853;1283;22604;-57
2023/02/25 12:57:16;;;;;;;;;;;;;;;3.03;93.81;98344.74;105778;1283;22963;-55
2023/02/25 13:00:06;;;;;;;;;;;;;;;3.03;94.04;98343.48;105667;1285;22571;-62
2023/02/25 13:02:52;;;;;;;;;;;;;;;3.02;93.38;98354.55;105788;1288;22524;-58
2023/02/25 13:05:28;;;;;;;;;;;;;;;3.00;93.59;98354.52;105660;1273;22491;-57
2023/02/25 13:08:10;;;;;;;;;;;;;;;3.01;93.91;98362.15;105648;1283;26611;-59
2023/02/25 13:10:52;;;;;;;;;;;;;;;2.99;93.51;98367.77;105645;1286;24537;-58
2023/02/25 13:13:30;;;;;;;;;;;;;;;2.97;93.31;98367.89;105686;1284;25359;-58